La Banda, Argentina
Current Conditions -  °F | °C
As of 9:00 PM on Friday 31 Oct 2014 (Local Time) from SANT Reporting Station
Broken Clouds Broken Clouds  
Wind Chill: 73°   Ceiling: 3000
Heat Index: 73°   Visibility: 4mi
Dew Point: 72°   Wind: 7mph
Humidity: 94%   Direction: 360°N
Pressure: 29.83"   Gusts: NA
Location:  27.73°S, 64.25°W
Report Text: SANT 010000Z 36006KT 6000 SCT025 BKN03023/22 Q1010
Loading
Personal Weather Stations






























Interactive Weather Map
Tropical Storm Tracking
New forecast layout! Learn more

10-Day Weather Forecast

Advertisements
Track Severe Weather on mobile